createdAt,value
2019-02-16T00:00:12.218Z,0
2019-02-16T00:01:11.957Z,0
2019-02-16T00:02:11.693Z,0
2019-02-16T00:03:12.170Z,0
2019-02-16T00:04:12.151Z,0
2019-02-16T00:05:12.131Z,0
2019-02-16T00:06:11.884Z,0
2019-02-16T00:07:12.091Z,0
2019-02-16T00:08:12.081Z,0
2019-02-16T00:09:12.061Z,0
2019-02-16T00:10:11.794Z,0
2019-02-16T00:11:12.031Z,0
2019-02-16T00:12:12.074Z,0
2019-02-16T00:13:11.994Z,0
2019-02-16T00:14:11.730Z,0
2019-02-16T00:15:11.968Z,0
2019-02-16T00:16:11.943Z,0
2019-02-16T00:17:11.696Z,0
2019-02-16T00:18:11.969Z,0
2019-02-16T00:19:11.891Z,0
2019-02-16T00:20:12.121Z,0
2019-02-16T00:21:11.860Z,0
2019-02-16T00:22:11.590Z,0
2019-02-16T00:23:11.835Z,0
2019-02-16T00:24:11.802Z,0
2019-02-16T00:25:11.784Z,0
2019-02-16T00:26:11.774Z,0
2019-02-16T00:27:11.755Z,0
2019-02-16T00:28:11.739Z,0
2019-02-16T00:29:11.476Z,0
2019-02-16T00:30:11.701Z,0
2019-02-16T00:31:11.451Z,0
2019-02-16T00:32:11.671Z,0
2019-02-16T00:33:11.665Z,0
2019-02-16T00:34:14.920Z,0
2019-02-16T00:35:11.621Z,0
2019-02-16T00:36:11.604Z,0
2019-02-16T00:37:11.591Z,0
2019-02-16T00:38:11.580Z,0
2019-02-16T00:39:11.557Z,0
2019-02-16T00:40:11.552Z,0
2019-02-16T00:41:11.523Z,0
2019-02-16T00:42:11.523Z,0
2019-02-16T00:43:11.548Z,0
2019-02-16T00:44:11.474Z,0
2019-02-16T00:45:11.457Z,0
2019-02-16T00:46:11.447Z,0
2019-02-16T00:47:11.422Z,0
2019-02-16T00:48:11.399Z,0
2019-02-16T00:49:11.397Z,0
2019-02-16T00:50:11.379Z,0
2019-02-16T00:51:20.434Z,0
2019-02-16T00:52:11.340Z,0
2019-02-16T00:53:11.324Z,0
2019-02-16T00:54:11.305Z,0
2019-02-16T00:55:11.046Z,0
2019-02-16T00:56:11.277Z,0
2019-02-16T00:57:11.257Z,0
2019-02-16T00:58:11.241Z,0
2019-02-16T00:59:11.230Z,0
2019-02-16T01:00:11.213Z,0
2019-02-16T01:01:11.190Z,0
2019-02-16T01:02:11.181Z,0
2019-02-16T01:03:10.916Z,0
2019-02-16T01:04:11.136Z,0
2019-02-16T01:05:10.874Z,0
2019-02-16T01:06:11.109Z,0
2019-02-16T01:07:10.846Z,0
2019-02-16T01:08:11.072Z,0
2019-02-16T01:09:10.812Z,0
2019-02-16T01:10:11.033Z,0
2019-02-16T01:11:11.017Z,0
2019-02-16T01:12:11.016Z,0
2019-02-16T01:13:10.746Z,0
2019-02-16T01:14:10.974Z,0
2019-02-16T01:15:10.707Z,0
2019-02-16T01:16:10.698Z,0
2019-02-16T01:17:10.935Z,0
2019-02-16T01:18:11.712Z,0
2019-02-16T01:19:10.653Z,0
2019-02-16T01:20:10.623Z,0
2019-02-16T01:21:10.868Z,0
2019-02-16T01:22:10.854Z,0
2019-02-16T01:23:10.590Z,0
2019-02-16T01:24:10.569Z,0
2019-02-16T01:25:10.789Z,0
2019-02-16T01:26:10.775Z,0
2019-02-16T01:27:10.758Z,0
2019-02-16T01:28:10.744Z,0
2019-02-16T01:29:10.725Z,0
2019-02-16T01:30:10.716Z,0
2019-02-16T01:31:10.708Z,0
2019-02-16T01:32:10.672Z,0
2019-02-16T01:33:10.662Z,0
2019-02-16T01:34:10.651Z,0
2019-02-16T01:35:10.627Z,0
2019-02-16T01:36:10.611Z,0
2019-02-16T01:37:10.594Z,0
2019-02-16T01:38:10.329Z,0
2019-02-16T01:39:10.567Z,0
2019-02-16T01:40:10.296Z,0
2019-02-16T01:41:10.276Z,0
2019-02-16T01:42:10.516Z,0
2019-02-16T01:43:10.506Z,0
2019-02-16T01:44:10.481Z,0
2019-02-16T01:45:10.461Z,0
2019-02-16T01:46:10.203Z,0
2019-02-16T01:47:10.191Z,0
2019-02-16T01:48:10.421Z,0
2019-02-16T01:49:10.154Z,0
2019-02-16T01:50:10.388Z,0
2019-02-16T01:51:10.109Z,0
2019-02-16T01:52:10.353Z,0
2019-02-16T01:53:10.325Z,0
2019-02-16T01:54:10.311Z,0
2019-02-16T01:55:10.044Z,0
2019-02-16T01:56:10.029Z,0
2019-02-16T01:57:10.019Z,0
2019-02-16T01:58:10.241Z,0
2019-02-16T01:59:10.229Z,0
2019-02-16T02:00:10.219Z,0
2019-02-16T02:01:10.142Z,0
2019-02-16T02:02:10.173Z,0
2019-02-16T02:03:10.165Z,0
2019-02-16T02:04:10.143Z,0
2019-02-16T02:05:09.880Z,0
2019-02-16T02:06:10.131Z,0
2019-02-16T02:07:10.089Z,0
2019-02-16T02:08:10.083Z,0
2019-02-16T02:09:12.066Z,0
2019-02-16T02:10:10.046Z,0
2019-02-16T02:11:10.023Z,0
2019-02-16T02:12:09.761Z,0
2019-02-16T02:13:09.995Z,0
2019-02-16T02:14:09.968Z,0
2019-02-16T02:15:09.954Z,0
2019-02-16T02:16:10.195Z,0
2019-02-16T02:17:09.918Z,0
2019-02-16T02:18:09.906Z,0
2019-02-16T02:19:09.924Z,0
2019-02-16T02:20:09.901Z,0
2019-02-16T02:21:09.605Z,0
2019-02-16T02:22:09.847Z,0
2019-02-16T02:23:09.830Z,0
2019-02-16T02:24:09.799Z,0
2019-02-16T02:25:09.796Z,0
2019-02-16T02:26:09.774Z,0
2019-02-16T02:27:09.763Z,0
2019-02-16T02:28:09.742Z,0
2019-02-16T02:29:09.479Z,0
2019-02-16T02:30:09.545Z,0
2019-02-16T02:31:09.696Z,0
2019-02-16T02:32:09.707Z,0
2019-02-16T02:33:09.680Z,0
2019-02-16T02:34:09.397Z,0
2019-02-16T02:35:09.674Z,0
2019-02-16T02:36:09.663Z,0
2019-02-16T02:37:09.352Z,0
2019-02-16T02:38:09.324Z,0
2019-02-16T02:39:09.124Z,0
2019-02-16T02:40:09.582Z,0
2019-02-16T02:41:09.535Z,0
2019-02-16T02:42:09.524Z,0
2019-02-16T02:43:09.247Z,0
2019-02-16T02:44:09.488Z,0
2019-02-16T02:45:09.466Z,0
2019-02-16T02:46:09.455Z,0
2019-02-16T02:47:09.430Z,0
2019-02-16T02:48:09.170Z,0
2019-02-16T02:49:09.401Z,0
2019-02-16T02:50:09.134Z,0
2019-02-16T02:51:09.366Z,0
2019-02-16T02:52:09.359Z,0
2019-02-16T02:53:09.349Z,0
2019-02-16T02:54:09.344Z,0
2019-02-16T02:55:09.306Z,0
2019-02-16T02:56:09.294Z,0
2019-02-16T02:57:09.280Z,0
2019-02-16T02:58:09.253Z,0
2019-02-16T02:59:09.234Z,0
2019-02-16T03:00:09.228Z,0
2019-02-16T03:01:09.226Z,0
2019-02-16T03:02:08.450Z,0
2019-02-16T03:03:09.201Z,0
2019-02-16T03:04:09.187Z,0
2019-02-16T03:05:09.158Z,0
2019-02-16T03:06:09.117Z,0
2019-02-16T03:07:09.103Z,0
2019-02-16T03:08:09.088Z,0
2019-02-16T03:09:09.092Z,0
2019-02-16T03:10:09.050Z,0
2019-02-16T03:11:08.783Z,0
2019-02-16T03:12:08.790Z,0
2019-02-16T03:13:08.768Z,0
2019-02-16T03:14:09.626Z,0
2019-02-16T03:15:08.976Z,0
2019-02-16T03:16:08.957Z,0
2019-02-16T03:17:08.943Z,0
2019-02-16T03:18:08.939Z,0
2019-02-16T03:19:08.903Z,0
2019-02-16T03:20:08.891Z,0
2019-02-16T03:21:08.867Z,0
2019-02-16T03:22:10.476Z,0
2019-02-16T03:23:08.590Z,0
2019-02-16T03:24:08.818Z,0
2019-02-16T03:25:08.814Z,0
2019-02-16T03:26:08.787Z,0
2019-02-16T03:27:08.772Z,0
2019-02-16T03:28:08.756Z,0
2019-02-16T03:29:08.758Z,0
2019-02-16T03:30:08.747Z,0
2019-02-16T03:31:08.567Z,0
2019-02-16T03:32:08.485Z,0
2019-02-16T03:33:08.703Z,0
2019-02-16T03:34:08.728Z,0
2019-02-16T03:35:08.396Z,0
2019-02-16T03:36:08.622Z,0
2019-02-16T03:37:08.609Z,0
2019-02-16T03:38:08.737Z,0
2019-02-16T03:39:08.576Z,0
2019-02-16T03:40:08.313Z,0
2019-02-16T03:41:08.585Z,0
2019-02-16T03:42:08.515Z,0
2019-02-16T03:43:08.509Z,0
2019-02-16T03:44:08.489Z,0
2019-02-16T03:45:08.473Z,0
2019-02-16T03:46:08.460Z,0
2019-02-16T03:47:08.443Z,0
2019-02-16T03:48:08.421Z,0
2019-02-16T03:49:07.920Z,0
2019-02-16T03:50:08.408Z,0
2019-02-16T03:51:08.399Z,0
2019-02-16T03:52:18.239Z,0
2019-02-16T03:53:08.359Z,0
2019-02-16T03:54:08.377Z,0
2019-02-16T03:55:08.061Z,0
2019-02-16T03:56:07.804Z,0
2019-02-16T03:57:08.289Z,0
2019-02-16T03:58:08.029Z,0
2019-02-16T03:59:08.242Z,0
2019-02-16T04:00:08.214Z,0
2019-02-16T04:01:07.958Z,0
2019-02-16T04:02:07.945Z,0
2019-02-16T04:03:08.182Z,0
2019-02-16T04:04:08.174Z,0
2019-02-16T04:05:08.139Z,0
2019-02-16T04:06:08.139Z,0
2019-02-16T04:07:08.102Z,0
2019-02-16T04:08:07.848Z,0
2019-02-16T04:09:08.072Z,0
2019-02-16T04:10:08.047Z,0
2019-02-16T04:11:08.052Z,0
2019-02-16T04:12:08.018Z,0
2019-02-16T04:13:08.003Z,0
2019-02-16T04:14:07.988Z,0
2019-02-16T04:15:07.965Z,0
2019-02-16T04:16:07.946Z,0
2019-02-16T04:17:07.959Z,0
2019-02-16T04:18:07.919Z,0
2019-02-16T04:19:07.908Z,0
2019-02-16T04:20:07.682Z,0
2019-02-16T04:21:07.865Z,0
2019-02-16T04:22:07.615Z,0
2019-02-16T04:23:07.845Z,0
2019-02-16T04:24:07.811Z,0
2019-02-16T04:25:07.801Z,0
2019-02-16T04:26:07.553Z,0
2019-02-16T04:27:07.790Z,0
2019-02-16T04:28:07.746Z,0
2019-02-16T04:29:07.487Z,0
2019-02-16T04:30:07.731Z,0
2019-02-16T04:31:07.707Z,0
2019-02-16T04:32:07.684Z,0
2019-02-16T04:33:07.665Z,0
2019-02-16T04:34:07.687Z,0
2019-02-16T04:35:07.647Z,0
2019-02-16T04:36:07.620Z,0
2019-02-16T04:37:07.588Z,0
2019-02-16T04:38:07.575Z,0
2019-02-16T04:39:07.338Z,0
2019-02-16T04:40:07.548Z,0
2019-02-16T04:41:07.293Z,0
2019-02-16T04:42:07.274Z,0
2019-02-16T04:43:07.501Z,0
2019-02-16T04:44:07.478Z,0
2019-02-16T04:45:07.477Z,0
2019-02-16T04:46:07.488Z,0
2019-02-16T04:47:07.427Z,0
2019-02-16T04:48:07.410Z,0
2019-02-16T04:49:07.428Z,0
2019-02-16T04:50:07.232Z,0
2019-02-16T04:51:07.388Z,0
2019-02-16T04:52:07.366Z,0
2019-02-16T04:53:07.336Z,0
2019-02-16T04:54:07.086Z,0
2019-02-16T04:55:07.416Z,0
2019-02-16T04:56:07.283Z,0
2019-02-16T04:57:07.288Z,0
2019-02-16T04:58:07.002Z,0
2019-02-16T04:59:07.253Z,0
2019-02-16T05:00:07.530Z,0
2019-02-16T05:01:07.225Z,0
2019-02-16T05:02:07.349Z,0
2019-02-16T05:03:07.183Z,0
2019-02-16T05:04:07.151Z,0
2019-02-16T05:05:07.009Z,0
2019-02-16T05:06:06.891Z,0
2019-02-16T05:07:07.115Z,0
2019-02-16T05:08:06.836Z,0
2019-02-16T05:09:07.074Z,0
2019-02-16T05:10:07.063Z,0
2019-02-16T05:11:07.042Z,0
2019-02-16T05:12:07.033Z,0
2019-02-16T05:13:06.999Z,0
2019-02-16T05:14:06.742Z,0
2019-02-16T05:15:06.733Z,0
2019-02-16T05:16:06.723Z,0
2019-02-16T05:17:06.933Z,0
2019-02-16T05:18:07.021Z,0
2019-02-16T05:19:06.910Z,0
2019-02-16T05:20:06.638Z,0
2019-02-16T05:21:06.867Z,0
2019-02-16T05:22:06.854Z,0
2019-02-16T05:23:06.891Z,0
2019-02-16T05:24:06.566Z,0
2019-02-16T05:25:06.813Z,0
2019-02-16T05:26:06.822Z,0
2019-02-16T05:27:06.603Z,0
2019-02-16T05:28:06.755Z,0
2019-02-16T05:29:06.736Z,0
2019-02-16T05:30:06.735Z,0
2019-02-16T05:31:06.700Z,0
2019-02-16T05:32:06.440Z,0
2019-02-16T05:33:06.672Z,0
2019-02-16T05:34:06.653Z,0
2019-02-16T05:35:06.640Z,0
2019-02-16T05:36:06.627Z,0
2019-02-16T05:37:06.615Z,0
2019-02-16T05:38:06.601Z,0
2019-02-16T05:39:06.404Z,0
2019-02-16T05:40:06.569Z,0
2019-02-16T05:41:06.544Z,0
2019-02-16T05:42:06.530Z,0
2019-02-16T05:43:06.523Z,0
2019-02-16T05:44:06.247Z,0
2019-02-16T05:45:06.479Z,0
2019-02-16T05:46:06.228Z,0
2019-02-16T05:47:06.466Z,0
2019-02-16T05:48:06.184Z,0
2019-02-16T05:49:06.448Z,0
2019-02-16T05:50:06.412Z,0
2019-02-16T05:51:06.387Z,0
2019-02-16T05:52:06.358Z,4
2019-02-16T05:53:06.333Z,4
2019-02-16T05:54:06.325Z,0
2019-02-16T05:55:06.071Z,4
2019-02-16T05:56:06.294Z,4
2019-02-16T05:57:06.264Z,4
2019-02-16T05:58:06.076Z,8
2019-02-16T05:59:08.022Z,8
2019-02-16T06:00:06.253Z,8
2019-02-16T06:01:06.213Z,8
2019-02-16T06:02:06.186Z,12
2019-02-16T06:03:06.355Z,12
2019-02-16T06:04:06.200Z,16
2019-02-16T06:05:06.162Z,20
2019-02-16T06:06:05.876Z,24
2019-02-16T06:07:06.109Z,24
2019-02-16T06:08:06.132Z,32
2019-02-16T06:09:05.841Z,36
2019-02-16T06:10:05.804Z,40
2019-02-16T06:11:08.367Z,48
2019-02-16T06:12:06.131Z,56
2019-02-16T06:13:06.010Z,64
2019-02-16T06:14:05.498Z,76
2019-02-16T06:15:05.729Z,80
2019-02-16T06:16:05.983Z,96
2019-02-16T06:17:05.688Z,104
2019-02-16T06:18:05.927Z,116
2019-02-16T06:19:05.658Z,128
2019-02-16T06:20:05.633Z,144
2019-02-16T06:21:06.766Z,160
2019-02-16T06:22:05.875Z,176
2019-02-16T06:23:11.439Z,192
2019-02-16T06:24:05.816Z,208
2019-02-16T06:25:05.801Z,224
2019-02-16T06:26:05.652Z,240
2019-02-16T06:27:05.530Z,260
2019-02-16T06:28:05.511Z,284
2019-02-16T06:29:05.744Z,308
2019-02-16T06:30:05.719Z,328
2019-02-16T06:31:05.710Z,352
2019-02-16T06:32:05.448Z,368
2019-02-16T06:33:05.677Z,392
2019-02-16T06:34:05.655Z,420
2019-02-16T06:35:05.384Z,444
2019-02-16T06:36:05.623Z,468
2019-02-16T06:37:05.107Z,488
2019-02-16T06:38:05.596Z,512
2019-02-16T06:39:05.576Z,532
2019-02-16T06:40:05.643Z,556
2019-02-16T06:41:05.547Z,572
2019-02-16T06:42:05.273Z,596
2019-02-16T06:43:05.507Z,616
2019-02-16T06:44:05.497Z,640
2019-02-16T06:45:05.467Z,668
2019-02-16T06:46:05.783Z,696
2019-02-16T06:47:05.190Z,732
2019-02-16T06:48:05.177Z,764
2019-02-16T06:49:05.404Z,788
2019-02-16T06:50:05.144Z,804
2019-02-16T06:51:05.119Z,824
2019-02-16T06:52:05.363Z,848
2019-02-16T06:53:12.781Z,868
2019-02-16T06:54:05.319Z,892
2019-02-16T06:55:05.311Z,912
2019-02-16T06:56:05.046Z,928
2019-02-16T06:57:04.778Z,940
2019-02-16T06:58:05.255Z,956
2019-02-16T06:59:05.262Z,976
2019-02-16T07:00:04.980Z,996
2019-02-16T07:01:05.203Z,1016
2019-02-16T07:02:05.207Z,1028
2019-02-16T07:03:05.173Z,1048
2019-02-16T07:04:05.161Z,1056
2019-02-16T07:05:05.145Z,1072
2019-02-16T07:06:05.124Z,1104
2019-02-16T07:07:05.120Z,1128
2019-02-16T07:08:05.099Z,1156
2019-02-16T07:09:05.076Z,1180
2019-02-16T07:10:05.188Z,1196
2019-02-16T07:11:04.800Z,1216
2019-02-16T07:12:05.032Z,1232
2019-02-16T07:13:05.020Z,1244
2019-02-16T07:14:04.995Z,1256
2019-02-16T07:15:05.130Z,1272
2019-02-16T07:16:04.966Z,1292
2019-02-16T07:17:04.965Z,1304
2019-02-16T07:18:04.685Z,1320
2019-02-16T07:19:04.915Z,1332
2019-02-16T07:20:04.853Z,1340
2019-02-16T07:21:04.886Z,1360
2019-02-16T07:22:04.653Z,1372
2019-02-16T07:23:04.851Z,1380
2019-02-16T07:24:04.886Z,1396
2019-02-16T07:25:04.969Z,1412
2019-02-16T07:26:05.052Z,1420
2019-02-16T07:27:04.817Z,1432
2019-02-16T07:28:04.774Z,1444
2019-02-16T07:29:04.747Z,1456
2019-02-16T07:30:04.247Z,1464
2019-02-16T07:31:04.724Z,1472
2019-02-16T07:32:04.710Z,1480
2019-02-16T07:33:04.703Z,1492
2019-02-16T07:34:04.673Z,1500
2019-02-16T07:35:04.666Z,1512
2019-02-16T07:36:04.640Z,1524
2019-02-16T07:37:04.627Z,1536
2019-02-16T07:38:04.619Z,1544
2019-02-16T07:39:04.607Z,1560
2019-02-16T07:40:04.589Z,1572
2019-02-16T07:41:04.555Z,1576
2019-02-16T07:42:04.372Z,1584
2019-02-16T07:43:04.604Z,1592
2019-02-16T07:44:04.568Z,1600
2019-02-16T07:45:04.503Z,1608
2019-02-16T07:46:04.479Z,1616
2019-02-16T07:47:04.481Z,1620
2019-02-16T07:48:04.449Z,1632
2019-02-16T07:49:04.188Z,1636
2019-02-16T07:50:04.416Z,1640
2019-02-16T07:51:04.409Z,1648
2019-02-16T07:52:04.141Z,1652
2019-02-16T07:53:04.384Z,1664
2019-02-16T07:54:04.355Z,1672
2019-02-16T07:55:04.336Z,1676
2019-02-16T07:56:04.340Z,1684
2019-02-16T07:57:04.055Z,1688
2019-02-16T07:58:04.294Z,1696
2019-02-16T07:59:04.024Z,1696
2019-02-16T08:00:04.259Z,1700
2019-02-16T08:01:04.240Z,1708
2019-02-16T08:02:03.979Z,1712
2019-02-16T08:03:04.222Z,1716
2019-02-16T08:04:04.200Z,1724
2019-02-16T08:05:03.935Z,1728
2019-02-16T08:06:04.181Z,1736
2019-02-16T08:07:04.183Z,1744
2019-02-16T08:08:04.140Z,1752
2019-02-16T08:09:04.122Z,1756
2019-02-16T08:10:03.857Z,1760
2019-02-16T08:11:04.085Z,1772
2019-02-16T08:12:03.826Z,1776
2019-02-16T08:13:03.809Z,1784
2019-02-16T08:14:05.095Z,1792
2019-02-16T08:15:04.037Z,1796
2019-02-16T08:16:03.772Z,1804
2019-02-16T08:17:03.743Z,1808
2019-02-16T08:18:03.984Z,1812
2019-02-16T08:19:03.964Z,1816
2019-02-16T08:20:03.955Z,1824
2019-02-16T08:21:03.930Z,1832
2019-02-16T08:22:03.924Z,1836
2019-02-16T08:23:03.915Z,1848
2019-02-16T08:24:03.904Z,1852
2019-02-16T08:25:03.882Z,1856
2019-02-16T08:26:03.865Z,1852
2019-02-16T08:27:03.843Z,1856
2019-02-16T08:28:03.825Z,1852
2019-02-16T08:29:03.812Z,1848
2019-02-16T08:30:03.805Z,1856
2019-02-16T08:31:03.795Z,1872
2019-02-16T08:32:03.765Z,1884
2019-02-16T08:33:03.751Z,1888
2019-02-16T08:34:03.747Z,1892
2019-02-16T08:35:03.727Z,1896
2019-02-16T08:36:03.719Z,1900
2019-02-16T08:37:03.700Z,1900
2019-02-16T08:38:03.678Z,1900
2019-02-16T08:39:03.669Z,1908
2019-02-16T08:40:03.465Z,1908
2019-02-16T08:41:03.633Z,1916
2019-02-16T08:42:03.630Z,1920
2019-02-16T08:43:03.618Z,1916
2019-02-16T08:44:03.353Z,1920
2019-02-16T08:45:03.606Z,1928
2019-02-16T08:46:03.601Z,1928
2019-02-16T08:47:03.555Z,1932
2019-02-16T08:48:03.545Z,1940
2019-02-16T08:49:03.518Z,1944
2019-02-16T08:50:03.272Z,1952
2019-02-16T08:51:03.246Z,1960
2019-02-16T08:52:03.233Z,1968
2019-02-16T08:53:03.462Z,1984
2019-02-16T08:54:03.452Z,1992
2019-02-16T08:55:03.440Z,1996
2019-02-16T08:56:03.429Z,2008
2019-02-16T08:57:03.399Z,2016
2019-02-16T08:58:03.402Z,2032
2019-02-16T08:59:03.382Z,2048
2019-02-16T09:00:03.117Z,2064
2019-02-16T09:01:03.349Z,2080
2019-02-16T09:02:03.335Z,2088
2019-02-16T09:03:03.322Z,2108
2019-02-16T09:04:03.312Z,2132
2019-02-16T09:05:03.064Z,2152
2019-02-16T09:06:03.319Z,2176
2019-02-16T09:07:04.778Z,2196
2019-02-16T09:08:03.256Z,2208
2019-02-16T09:09:03.236Z,2224
2019-02-16T09:10:03.230Z,2228
2019-02-16T09:11:03.276Z,2240
2019-02-16T09:12:03.253Z,2244
2019-02-16T09:13:03.183Z,2248
2019-02-16T09:14:03.171Z,2256
2019-02-16T09:15:03.225Z,2256
2019-02-16T09:16:02.907Z,2260
2019-02-16T09:17:03.135Z,2260
2019-02-16T09:18:02.875Z,2260
2019-02-16T09:19:03.119Z,2268
2019-02-16T09:20:03.099Z,2272
2019-02-16T09:21:03.088Z,2280
2019-02-16T09:22:03.066Z,2280
2019-02-16T09:23:03.057Z,2288
2019-02-16T09:24:06.544Z,2288
2019-02-16T09:25:03.031Z,2288
2019-02-16T09:26:02.766Z,2296
2019-02-16T09:27:03.007Z,2304
2019-02-16T09:28:02.995Z,2308
2019-02-16T09:29:02.977Z,2308
2019-02-16T09:30:02.978Z,2308
2019-02-16T09:31:02.962Z,2308
2019-02-16T09:32:02.706Z,2308
2019-02-16T09:33:02.681Z,2308
2019-02-16T09:34:02.921Z,2320
2019-02-16T09:35:02.907Z,2312
2019-02-16T09:36:02.887Z,2304
2019-02-16T09:37:02.629Z,2284
2019-02-16T09:38:02.621Z,2276
2019-02-16T09:39:02.868Z,2276
2019-02-16T09:40:02.596Z,2268
2019-02-16T09:41:02.829Z,2276
2019-02-16T09:42:02.812Z,2276
2019-02-16T09:43:04.174Z,2268
2019-02-16T09:44:02.795Z,2268
2019-02-16T09:45:02.789Z,2276
2019-02-16T09:46:02.767Z,2284
2019-02-16T09:47:02.757Z,2296
2019-02-16T09:48:02.492Z,2316
2019-02-16T09:49:02.758Z,2336
2019-02-16T09:50:02.727Z,2360
2019-02-16T09:51:02.715Z,2376
2019-02-16T09:52:02.702Z,2388
2019-02-16T09:53:02.693Z,2400
2019-02-16T09:54:10.839Z,2400
2019-02-16T09:55:02.693Z,2392
2019-02-16T09:56:02.647Z,2384
2019-02-16T09:57:02.658Z,2360
2019-02-16T09:58:02.633Z,2332
2019-02-16T09:59:02.615Z,2308
2019-02-16T10:00:02.346Z,2284
2019-02-16T10:01:02.346Z,2252
2019-02-16T10:02:02.574Z,2228
2019-02-16T10:03:02.566Z,2204
2019-02-16T10:04:02.546Z,2184
2019-02-16T10:05:02.596Z,2184
2019-02-16T10:06:02.532Z,2196
2019-02-16T10:07:02.262Z,2208
2019-02-16T10:08:02.511Z,2220
2019-02-16T10:09:02.491Z,2220
2019-02-16T10:10:02.667Z,2228
2019-02-16T10:11:02.773Z,2232
2019-02-16T10:12:02.460Z,2212
2019-02-16T10:13:03.122Z,2224
2019-02-16T10:14:02.439Z,2224
2019-02-16T10:15:02.184Z,2224
2019-02-16T10:16:02.417Z,2220
2019-02-16T10:17:02.152Z,2224
2019-02-16T10:18:02.145Z,2232
2019-02-16T10:19:02.382Z,2240
2019-02-16T10:20:02.373Z,2256
2019-02-16T10:21:02.355Z,2284
2019-02-16T10:22:02.097Z,2320
2019-02-16T10:23:02.396Z,2368
2019-02-16T10:24:02.319Z,2420
2019-02-16T10:25:02.311Z,2468
2019-02-16T10:26:02.306Z,2520
2019-02-16T10:27:02.048Z,2568
2019-02-16T10:28:02.284Z,2644
2019-02-16T10:29:02.274Z,2696
2019-02-16T10:30:02.258Z,2756
2019-02-16T10:31:03.328Z,2816
2019-02-16T10:32:01.986Z,2808
2019-02-16T10:33:02.303Z,2792
2019-02-16T10:34:02.217Z,2780
2019-02-16T10:35:02.209Z,2772
2019-02-16T10:36:02.195Z,2776
2019-02-16T10:37:01.926Z,2772
2019-02-16T10:38:01.679Z,2772
2019-02-16T10:39:03.513Z,2776
2019-02-16T10:40:02.161Z,2780
2019-02-16T10:41:03.987Z,2780
2019-02-16T10:42:02.124Z,2780
2019-02-16T10:43:02.113Z,2780
2019-02-16T10:44:03.310Z,2776
2019-02-16T10:45:02.096Z,2776
2019-02-16T10:46:02.094Z,2780
2019-02-16T10:47:02.075Z,2780
2019-02-16T10:48:02.066Z,2776
2019-02-16T10:49:02.051Z,2784
2019-02-16T10:50:01.796Z,2780
2019-02-16T10:51:02.038Z,2784
2019-02-16T10:52:02.031Z,2776
2019-02-16T10:53:02.010Z,2772
2019-02-16T10:54:03.448Z,2772
2019-02-16T10:55:01.991Z,2772
2019-02-16T10:56:01.746Z,2772
2019-02-16T10:57:02.081Z,2764
2019-02-16T10:58:01.965Z,2768
2019-02-16T10:59:01.949Z,2768
2019-02-16T11:00:01.700Z,2760
2019-02-16T11:01:01.946Z,2760
2019-02-16T11:02:01.696Z,2756
2019-02-16T11:03:01.917Z,2752
2019-02-16T11:04:01.905Z,2752
2019-02-16T11:05:03.989Z,2748
2019-02-16T11:06:01.883Z,2748
2019-02-16T11:07:01.378Z,2744
2019-02-16T11:08:01.614Z,2744
2019-02-16T11:09:01.859Z,2736
2019-02-16T11:10:01.850Z,2736
2019-02-16T11:11:01.835Z,2728
2019-02-16T11:12:01.828Z,2732
2019-02-16T11:13:01.570Z,2732
2019-02-16T11:14:01.562Z,2728
2019-02-16T11:15:01.803Z,2728
2019-02-16T11:16:01.783Z,2724
2019-02-16T11:17:01.283Z,2720
2019-02-16T11:18:03.094Z,2728
2019-02-16T11:19:01.775Z,2720
2019-02-16T11:20:01.564Z,2724
2019-02-16T11:21:01.744Z,2724
2019-02-16T11:22:01.737Z,2712
2019-02-16T11:23:01.720Z,2716
2019-02-16T11:24:01.717Z,2716
2019-02-16T11:25:01.700Z,2720
2019-02-16T11:26:01.704Z,2712
2019-02-16T11:27:01.688Z,2712
2019-02-16T11:28:01.679Z,2708
2019-02-16T11:29:01.664Z,2692
2019-02-16T11:30:01.666Z,2704
2019-02-16T11:31:01.645Z,2700
2019-02-16T11:32:01.387Z,2700
2019-02-16T11:33:01.642Z,2696
2019-02-16T11:34:01.629Z,2700
2019-02-16T11:35:01.645Z,2696
2019-02-16T11:36:01.607Z,2692
2019-02-16T11:37:01.599Z,2692
2019-02-16T11:38:01.366Z,2684
2019-02-16T11:39:01.583Z,2688
2019-02-16T11:40:01.566Z,2684
2019-02-16T11:41:01.570Z,2680
2019-02-16T11:42:01.552Z,2676
2019-02-16T11:43:01.536Z,2672
2019-02-16T11:44:01.533Z,2664
2019-02-16T11:45:01.523Z,2664
2019-02-16T11:46:01.514Z,2664
2019-02-16T11:47:01.509Z,2660
2019-02-16T11:48:03.096Z,2652
2019-02-16T11:49:01.497Z,2648
2019-02-16T11:50:01.487Z,2652
2019-02-16T11:51:01.468Z,2648
2019-02-16T11:52:00.964Z,2640
2019-02-16T11:53:01.463Z,2636
2019-02-16T11:54:01.442Z,2632
2019-02-16T11:55:01.438Z,2628
2019-02-16T11:56:01.176Z,2628
2019-02-16T11:57:01.162Z,2620
2019-02-16T11:58:01.409Z,2616
2019-02-16T11:59:02.807Z,2604
2019-02-16T12:00:01.402Z,2592
2019-02-16T12:01:01.387Z,2596
2019-02-16T12:02:01.373Z,2584
2019-02-16T12:03:01.363Z,2568
2019-02-16T12:04:01.349Z,2564
2019-02-16T12:05:01.343Z,2564
2019-02-16T12:06:01.355Z,2564
2019-02-16T12:07:01.332Z,2556
2019-02-16T12:08:01.617Z,2544
2019-02-16T12:09:01.309Z,2544
2019-02-16T12:10:01.053Z,2532
2019-02-16T12:11:01.041Z,2532
2019-02-16T12:12:01.284Z,2520
2019-02-16T12:13:01.324Z,2512
2019-02-16T12:14:01.273Z,2504
2019-02-16T12:15:01.259Z,2496
2019-02-16T12:16:02.432Z,2488
2019-02-16T12:17:00.746Z,2476
2019-02-16T12:18:01.244Z,2472
2019-02-16T12:19:01.223Z,2468
2019-02-16T12:20:01.222Z,2456
2019-02-16T12:21:01.277Z,2440
2019-02-16T12:22:00.953Z,2436
2019-02-16T12:23:01.192Z,2424
2019-02-16T12:24:00.946Z,2408
2019-02-16T12:25:12.497Z,2396
2019-02-16T12:26:00.918Z,2396
2019-02-16T12:27:01.171Z,2380
2019-02-16T12:28:01.144Z,2368
2019-02-16T12:29:00.888Z,2364
2019-02-16T12:30:00.893Z,2352
2019-02-16T12:31:01.125Z,2340
2019-02-16T12:32:00.617Z,2332
2019-02-16T12:33:01.107Z,2328
2019-02-16T12:34:01.100Z,2312
2019-02-16T12:35:00.841Z,2300
2019-02-16T12:36:01.077Z,2288
2019-02-16T12:37:00.819Z,2284
2019-02-16T12:38:00.805Z,2288
2019-02-16T12:39:09.509Z,2272
2019-02-16T12:40:00.795Z,2264
2019-02-16T12:41:00.786Z,2256
2019-02-16T12:42:01.025Z,2244
2019-02-16T12:43:01.022Z,2244
2019-02-16T12:44:01.012Z,2236
2019-02-16T12:45:00.994Z,2216
2019-02-16T12:46:00.988Z,2208
2019-02-16T12:47:00.993Z,2204
2019-02-16T12:48:00.967Z,2196
2019-02-16T12:49:00.986Z,2184
2019-02-16T12:50:00.713Z,2176
2019-02-16T12:51:01.975Z,2172
2019-02-16T12:52:00.942Z,2168
2019-02-16T12:53:00.927Z,2160
2019-02-16T12:54:00.921Z,2156
2019-02-16T12:55:00.981Z,2152
2019-02-16T12:56:00.903Z,2152
2019-02-16T12:57:00.906Z,2148
2019-02-16T12:58:00.895Z,2136
2019-02-16T12:59:00.622Z,2132
2019-02-16T13:00:00.933Z,2124
2019-02-16T13:01:00.858Z,2124
2019-02-16T13:02:00.850Z,2112
2019-02-16T13:03:00.841Z,2108
2019-02-16T13:04:00.586Z,2100
2019-02-16T13:05:00.330Z,2100
2019-02-16T13:06:00.599Z,2088
2019-02-16T13:07:00.852Z,2088
2019-02-16T13:08:00.839Z,2072
2019-02-16T13:09:00.823Z,2064
2019-02-16T13:10:00.818Z,2060
2019-02-16T13:11:00.823Z,2056
2019-02-16T13:12:00.823Z,2052
2019-02-16T13:13:00.545Z,2056
2019-02-16T13:14:00.757Z,2056
2019-02-16T13:15:02.800Z,2052
2019-02-16T13:16:00.729Z,2048
2019-02-16T13:17:00.715Z,2036
2019-02-16T13:18:00.812Z,2028
2019-02-16T13:19:00.757Z,2020
2019-02-16T13:20:00.686Z,2016
2019-02-16T13:21:00.686Z,2012
2019-02-16T13:22:00.425Z,2004
2019-02-16T13:23:00.418Z,2004
2019-02-16T13:24:00.655Z,2000
2019-02-16T13:25:00.649Z,1988
2019-02-16T13:26:00.637Z,1992
2019-02-16T13:27:00.632Z,1996
2019-02-16T13:28:00.645Z,1992
2019-02-16T13:29:00.614Z,1988
2019-02-16T13:30:00.599Z,1992
2019-02-16T13:31:00.346Z,1988
2019-02-16T13:32:00.592Z,1984
2019-02-16T13:33:08.219Z,1980
2019-02-16T13:34:00.599Z,1980
2019-02-16T13:35:00.618Z,1980
2019-02-16T13:36:00.858Z,1972
2019-02-16T13:37:00.288Z,1968
2019-02-16T13:38:00.526Z,1960
2019-02-16T13:39:00.276Z,1956
2019-02-16T13:40:00.510Z,1956
2019-02-16T13:41:00.252Z,1956
2019-02-16T13:42:00.498Z,1956
2019-02-16T13:43:00.488Z,1956
2019-02-16T13:44:00.226Z,1952
2019-02-16T13:45:00.460Z,1944
2019-02-16T13:46:00.205Z,1936
2019-02-16T13:46:59.971Z,1928
2019-02-16T13:48:00.433Z,1924
2019-02-16T13:49:00.440Z,1924
2019-02-16T13:50:00.416Z,1920
2019-02-16T13:51:00.415Z,1920
2019-02-16T13:52:00.398Z,1916
2019-02-16T13:53:00.391Z,1916
2019-02-16T13:54:00.187Z,1908
2019-02-16T13:55:00.378Z,1908
2019-02-16T13:56:00.355Z,1904
2019-02-16T13:57:00.462Z,1900